sensor_id;sensor_type;location;lat;lon;timestamp;temperature;humidity
37938;DHT22;23763;48.130;11.602;2023-04-25T00:02:17;9.70;99.90
37938;DHT22;23763;48.130;11.602;2023-04-25T00:04:43;9.60;99.90
37938;DHT22;23763;48.130;11.602;2023-04-25T00:07:09;9.60;99.90
37938;DHT22;23763;48.130;11.602;2023-04-25T00:09:34;9.50;99.90
37938;DHT22;23763;48.130;11.602;2023-04-25T00:12:00;9.40;99.90
37938;DHT22;23763;48.130;11.602;2023-04-25T00:14:26;9.40;99.90
37938;DHT22;23763;48.130;11.602;2023-04-25T00:16:53;9.60;99.90
37938;DHT22;23763;48.130;11.602;2023-04-25T00:19:19;9.40;99.90
37938;DHT22;23763;48.130;11.602;2023-04-25T00:21:45;9.60;99.90
37938;DHT22;23763;48.130;11.602;2023-04-25T00:24:12;9.60;99.90
37938;DHT22;23763;48.130;11.602;2023-04-25T00:26:37;9.60;99.90
37938;DHT22;23763;48.130;11.602;2023-04-25T00:29:03;9.70;99.90
37938;DHT22;23763;48.130;11.602;2023-04-25T00:31:29;9.80;99.90
37938;DHT22;23763;48.130;11.602;2023-04-25T00:33:55;9.60;99.90
37938;DHT22;23763;48.130;11.602;2023-04-25T00:36:20;9.60;99.90
37938;DHT22;23763;48.130;11.602;2023-04-25T00:38:46;9.70;99.90
37938;DHT22;23763;48.130;11.602;2023-04-25T00:41:12;9.60;99.90
37938;DHT22;23763;48.130;11.602;2023-04-25T00:43:38;9.80;99.90
37938;DHT22;23763;48.130;11.602;2023-04-25T00:46:05;9.70;99.90
37938;DHT22;23763;48.130;11.602;2023-04-25T00:48:30;9.60;99.90
37938;DHT22;23763;48.130;11.602;2023-04-25T00:50:58;9.50;99.90
37938;DHT22;23763;48.130;11.602;2023-04-25T00:53:25;9.40;99.90
37938;DHT22;23763;48.130;11.602;2023-04-25T00:55:52;9.30;99.90
37938;DHT22;23763;48.130;11.602;2023-04-25T00:58:18;9.30;99.90
37938;DHT22;23763;48.130;11.602;2023-04-25T01:00:46;9.30;99.90
37938;DHT22;23763;48.130;11.602;2023-04-25T01:03:13;9.30;99.90
37938;DHT22;23763;48.130;11.602;2023-04-25T01:05:41;9.30;99.90
37938;DHT22;23763;48.130;11.602;2023-04-25T01:08:07;9.20;99.90
37938;DHT22;23763;48.130;11.602;2023-04-25T01:10:33;9.20;99.90
37938;DHT22;23763;48.130;11.602;2023-04-25T01:12:58;9.10;99.90
37938;DHT22;23763;48.130;11.602;2023-04-25T01:15:24;9.10;99.90
37938;DHT22;23763;48.130;11.602;2023-04-25T01:17:50;9.10;99.90
37938;DHT22;23763;48.130;11.602;2023-04-25T01:20:16;9.10;99.90
37938;DHT22;23763;48.130;11.602;2023-04-25T01:22:42;9.10;99.90
37938;DHT22;23763;48.130;11.602;2023-04-25T01:25:09;9.20;99.90
37938;DHT22;23763;48.130;11.602;2023-04-25T01:27:36;9.20;99.90
37938;DHT22;23763;48.130;11.602;2023-04-25T01:30:02;9.20;99.90
37938;DHT22;23763;48.130;11.602;2023-04-25T01:32:29;9.10;99.90
37938;DHT22;23763;48.130;11.602;2023-04-25T01:34:57;9.20;99.90
37938;DHT22;23763;48.130;11.602;2023-04-25T01:37:22;9.20;99.90
37938;DHT22;23763;48.130;11.602;2023-04-25T01:39:48;9.20;99.90
37938;DHT22;23763;48.130;11.602;2023-04-25T01:42:15;9.10;99.90
37938;DHT22;23763;48.130;11.602;2023-04-25T01:44:41;9.00;99.90
37938;DHT22;23763;48.130;11.602;2023-04-25T01:47:06;8.90;99.90
37938;DHT22;23763;48.130;11.602;2023-04-25T01:49:32;8.90;99.90
37938;DHT22;23763;48.130;11.602;2023-04-25T01:51:58;8.90;99.90
37938;DHT22;23763;48.130;11.602;2023-04-25T01:54:24;8.80;99.90
37938;DHT22;23763;48.130;11.602;2023-04-25T01:56:52;8.80;99.90
37938;DHT22;23763;48.130;11.602;2023-04-25T01:59:18;8.70;99.90
37938;DHT22;23763;48.130;11.602;2023-04-25T02:01:45;8.70;99.90
37938;DHT22;23763;48.130;11.602;2023-04-25T02:04:10;8.80;99.90
37938;DHT22;23763;48.130;11.602;2023-04-25T02:06:36;8.80;99.90
37938;DHT22;23763;48.130;11.602;2023-04-25T02:09:02;8.80;99.90
37938;DHT22;23763;48.130;11.602;2023-04-25T02:11:27;8.70;99.90
37938;DHT22;23763;48.130;11.602;2023-04-25T02:13:53;8.70;99.90
37938;DHT22;23763;48.130;11.602;2023-04-25T02:16:18;8.70;99.90
37938;DHT22;23763;48.130;11.602;2023-04-25T02:18:44;8.60;99.90
37938;DHT22;23763;48.130;11.602;2023-04-25T02:21:10;8.60;99.90
37938;DHT22;23763;48.130;11.602;2023-04-25T02:23:36;8.60;99.90
37938;DHT22;23763;48.130;11.602;2023-04-25T02:26:03;8.70;99.90
37938;DHT22;23763;48.130;11.602;2023-04-25T02:28:28;8.60;99.90
37938;DHT22;23763;48.130;11.602;2023-04-25T02:30:54;8.60;99.90
37938;DHT22;23763;48.130;11.602;2023-04-25T02:33:20;8.60;99.90
37938;DHT22;23763;48.130;11.602;2023-04-25T02:35:46;8.60;99.90
37938;DHT22;23763;48.130;11.602;2023-04-25T02:38:12;8.70;99.90
37938;DHT22;23763;48.130;11.602;2023-04-25T02:40:37;8.70;99.90
37938;DHT22;23763;48.130;11.602;2023-04-25T02:43:03;8.70;99.90
37938;DHT22;23763;48.130;11.602;2023-04-25T02:45:28;8.80;99.90
37938;DHT22;23763;48.130;11.602;2023-04-25T02:47:54;8.70;99.90
37938;DHT22;23763;48.130;11.602;2023-04-25T02:50:20;8.70;99.90
37938;DHT22;23763;48.130;11.602;2023-04-25T02:52:45;8.70;99.90
37938;DHT22;23763;48.130;11.602;2023-04-25T02:55:12;8.80;99.90
37938;DHT22;23763;48.130;11.602;2023-04-25T02:57:38;8.80;99.90
37938;DHT22;23763;48.130;11.602;2023-04-25T03:00:04;8.90;99.90
37938;DHT22;23763;48.130;11.602;2023-04-25T03:02:30;8.90;99.90
37938;DHT22;23763;48.130;11.602;2023-04-25T03:04:56;8.90;99.90
37938;DHT22;23763;48.130;11.602;2023-04-25T03:07:22;9.10;99.90
37938;DHT22;23763;48.130;11.602;2023-04-25T03:09:47;9.00;99.90
37938;DHT22;23763;48.130;11.602;2023-04-25T03:12:13;9.20;99.90
37938;DHT22;23763;48.130;11.602;2023-04-25T03:14:38;9.20;99.90
37938;DHT22;23763;48.130;11.602;2023-04-25T03:17:04;9.10;99.90
37938;DHT22;23763;48.130;11.602;2023-04-25T03:19:29;9.20;99.90
37938;DHT22;23763;48.130;11.602;2023-04-25T03:21:55;9.10;99.90
37938;DHT22;23763;48.130;11.602;2023-04-25T03:24:21;9.10;99.90
37938;DHT22;23763;48.130;11.602;2023-04-25T03:26:47;9.00;99.90
37938;DHT22;23763;48.130;11.602;2023-04-25T03:29:12;9.00;99.90
37938;DHT22;23763;48.130;11.602;2023-04-25T03:31:38;9.00;99.90
37938;DHT22;23763;48.130;11.602;2023-04-25T03:34:04;9.00;99.90
37938;DHT22;23763;48.130;11.602;2023-04-25T03:36:29;9.00;99.90
37938;DHT22;23763;48.130;11.602;2023-04-25T03:38:55;8.90;99.90
37938;DHT22;23763;48.130;11.602;2023-04-25T03:41:20;8.90;99.90
37938;DHT22;23763;48.130;11.602;2023-04-25T03:43:46;8.80;99.90
37938;DHT22;23763;48.130;11.602;2023-04-25T03:46:12;8.70;99.90
37938;DHT22;23763;48.130;11.602;2023-04-25T03:48:37;8.70;99.90
37938;DHT22;23763;48.130;11.602;2023-04-25T03:51:03;8.70;99.90
37938;DHT22;23763;48.130;11.602;2023-04-25T03:53:28;8.70;99.90
37938;DHT22;23763;48.130;11.602;2023-04-25T03:55:54;8.70;99.90
37938;DHT22;23763;48.130;11.602;2023-04-25T03:58:20;8.70;99.90
37938;DHT22;23763;48.130;11.602;2023-04-25T04:00:48;8.80;99.90
37938;DHT22;23763;48.130;11.602;2023-04-25T04:03:14;8.70;99.90
37938;DHT22;23763;48.130;11.602;2023-04-25T04:05:40;8.70;99.90
37938;DHT22;23763;48.130;11.602;2023-04-25T04:08:06;8.60;99.90
37938;DHT22;23763;48.130;11.602;2023-04-25T04:10:32;8.50;99.90
37938;DHT22;23763;48.130;11.602;2023-04-25T04:12:58;8.60;99.90
37938;DHT22;23763;48.130;11.602;2023-04-25T04:15:23;8.60;99.90
37938;DHT22;23763;48.130;11.602;2023-04-25T04:17:49;8.50;99.90
37938;DHT22;23763;48.130;11.602;2023-04-25T04:20:15;8.50;99.90
37938;DHT22;23763;48.130;11.602;2023-04-25T04:22:40;8.50;99.90
37938;DHT22;23763;48.130;11.602;2023-04-25T04:25:06;8.50;99.90
37938;DHT22;23763;48.130;11.602;2023-04-25T04:27:32;8.40;99.90
37938;DHT22;23763;48.130;11.602;2023-04-25T04:29:58;8.30;99.90
37938;DHT22;23763;48.130;11.602;2023-04-25T04:32:23;8.30;99.90
37938;DHT22;23763;48.130;11.602;2023-04-25T04:34:50;8.30;99.90
37938;DHT22;23763;48.130;11.602;2023-04-25T04:37:16;8.30;99.90
37938;DHT22;23763;48.130;11.602;2023-04-25T04:39:41;8.40;99.90
37938;DHT22;23763;48.130;11.602;2023-04-25T04:42:07;8.40;99.90
37938;DHT22;23763;48.130;11.602;2023-04-25T04:44:33;8.50;99.90
37938;DHT22;23763;48.130;11.602;2023-04-25T04:47:00;8.50;99.90
37938;DHT22;23763;48.130;11.602;2023-04-25T04:49:25;8.50;99.90
37938;DHT22;23763;48.130;11.602;2023-04-25T04:51:51;8.50;99.90
37938;DHT22;23763;48.130;11.602;2023-04-25T04:54:17;8.50;99.90
37938;DHT22;23763;48.130;11.602;2023-04-25T04:56:43;8.50;99.90
37938;DHT22;23763;48.130;11.602;2023-04-25T04:59:08;8.50;99.90
37938;DHT22;23763;48.130;11.602;2023-04-25T05:01:34;8.50;99.90
37938;DHT22;23763;48.130;11.602;2023-04-25T05:04:02;8.50;99.90
37938;DHT22;23763;48.130;11.602;2023-04-25T05:06:29;8.50;99.90
37938;DHT22;23763;48.130;11.602;2023-04-25T05:08:56;8.50;99.90
37938;DHT22;23763;48.130;11.602;2023-04-25T05:11:22;8.50;99.90
37938;DHT22;23763;48.130;11.602;2023-04-25T05:13:49;8.50;99.90
37938;DHT22;23763;48.130;11.602;2023-04-25T05:16:14;8.50;99.90
37938;DHT22;23763;48.130;11.602;2023-04-25T05:18:40;8.70;99.90
37938;DHT22;23763;48.130;11.602;2023-04-25T05:21:06;8.80;99.90
37938;DHT22;23763;48.130;11.602;2023-04-25T05:23:32;8.90;99.90
37938;DHT22;23763;48.130;11.602;2023-04-25T05:25:59;8.90;99.90
37938;DHT22;23763;48.130;11.602;2023-04-25T05:28:25;8.90;99.90
37938;DHT22;23763;48.130;11.602;2023-04-25T05:30:51;8.90;99.90
37938;DHT22;23763;48.130;11.602;2023-04-25T05:33:16;8.80;99.90
37938;DHT22;23763;48.130;11.602;2023-04-25T05:35:42;8.80;99.90
37938;DHT22;23763;48.130;11.602;2023-04-25T05:38:08;8.90;99.90
37938;DHT22;23763;48.130;11.602;2023-04-25T05:40:33;8.80;99.90
37938;DHT22;23763;48.130;11.602;2023-04-25T05:42:59;8.80;99.90
37938;DHT22;23763;48.130;11.602;2023-04-25T05:45:25;8.80;99.90
37938;DHT22;23763;48.130;11.602;2023-04-25T05:47:50;9.00;99.90
37938;DHT22;23763;48.130;11.602;2023-04-25T05:50:16;8.90;99.90
37938;DHT22;23763;48.130;11.602;2023-04-25T05:52:42;9.00;99.90
37938;DHT22;23763;48.130;11.602;2023-04-25T05:55:08;9.10;99.90
37938;DHT22;23763;48.130;11.602;2023-04-25T05:57:34;9.10;99.90
37938;DHT22;23763;48.130;11.602;2023-04-25T05:59:59;9.30;99.90
37938;DHT22;23763;48.130;11.602;2023-04-25T06:02:25;9.30;99.90
37938;DHT22;23763;48.130;11.602;2023-04-25T06:04:51;9.30;99.90
37938;DHT22;23763;48.130;11.602;2023-04-25T06:07:18;9.20;99.90
37938;DHT22;23763;48.130;11.602;2023-04-25T06:09:44;8.80;99.90
37938;DHT22;23763;48.130;11.602;2023-04-25T06:12:10;8.60;99.90
37938;DHT22;23763;48.130;11.602;2023-04-25T06:14:35;8.30;99.90
37938;DHT22;23763;48.130;11.602;2023-04-25T06:17:02;8.20;99.90
37938;DHT22;23763;48.130;11.602;2023-04-25T06:19:36;8.10;99.90
37938;DHT22;23763;48.130;11.602;2023-04-25T06:22:02;8.00;99.90
37938;DHT22;23763;48.130;11.602;2023-04-25T06:24:27;7.90;99.90
37938;DHT22;23763;48.130;11.602;2023-04-25T06:26:53;7.80;99.90
37938;DHT22;23763;48.130;11.602;2023-04-25T06:29:19;7.70;99.90
37938;DHT22;23763;48.130;11.602;2023-04-25T06:31:44;7.70;99.90
37938;DHT22;23763;48.130;11.602;2023-04-25T06:34:10;7.70;99.90
37938;DHT22;23763;48.130;11.602;2023-04-25T06:36:36;7.90;99.90
37938;DHT22;23763;48.130;11.602;2023-04-25T06:39:01;7.90;99.90
37938;DHT22;23763;48.130;11.602;2023-04-25T06:41:27;8.00;99.90
37938;DHT22;23763;48.130;11.602;2023-04-25T06:43:53;8.20;99.90
37938;DHT22;23763;48.130;11.602;2023-04-25T06:46:18;8.70;99.90
37938;DHT22;23763;48.130;11.602;2023-04-25T06:48:44;8.90;99.90
37938;DHT22;23763;48.130;11.602;2023-04-25T06:51:10;9.30;99.90
37938;DHT22;23763;48.130;11.602;2023-04-25T06:53:36;9.70;99.90
37938;DHT22;23763;48.130;11.602;2023-04-25T06:56:01;10.00;99.90
37938;DHT22;23763;48.130;11.602;2023-04-25T06:58:28;9.80;99.90
37938;DHT22;23763;48.130;11.602;2023-04-25T07:00:53;9.80;99.90
37938;DHT22;23763;48.130;11.602;2023-04-25T07:03:19;9.80;99.90
37938;DHT22;23763;48.130;11.602;2023-04-25T07:05:45;10.20;99.90
37938;DHT22;23763;48.130;11.602;2023-04-25T07:08:11;10.20;99.90
37938;DHT22;23763;48.130;11.602;2023-04-25T07:10:37;10.40;99.90
37938;DHT22;23763;48.130;11.602;2023-04-25T07:13:03;10.30;99.90
37938;DHT22;23763;48.130;11.602;2023-04-25T07:15:28;10.40;99.90
37938;DHT22;23763;48.130;11.602;2023-04-25T07:17:54;10.40;99.90
37938;DHT22;23763;48.130;11.602;2023-04-25T07:20:19;10.20;99.90
37938;DHT22;23763;48.130;11.602;2023-04-25T07:22:45;10.30;99.90
37938;DHT22;23763;48.130;11.602;2023-04-25T07:25:11;10.40;99.90
37938;DHT22;23763;48.130;11.602;2023-04-25T07:27:36;10.20;99.90
37938;DHT22;23763;48.130;11.602;2023-04-25T07:30:03;10.10;99.90
37938;DHT22;23763;48.130;11.602;2023-04-25T07:32:29;10.00;99.90
37938;DHT22;23763;48.130;11.602;2023-04-25T07:34:55;9.90;99.90
37938;DHT22;23763;48.130;11.602;2023-04-25T07:37:20;10.30;99.90
37938;DHT22;23763;48.130;11.602;2023-04-25T07:39:46;10.40;99.90
37938;DHT22;23763;48.130;11.602;2023-04-25T07:42:12;10.70;99.90
37938;DHT22;23763;48.130;11.602;2023-04-25T07:44:37;11.30;99.90
37938;DHT22;23763;48.130;11.602;2023-04-25T07:47:08;11.50;99.90
37938;DHT22;23763;48.130;11.602;2023-04-25T07:49:34;11.90;99.90
37938;DHT22;23763;48.130;11.602;2023-04-25T07:52:01;12.10;99.90
37938;DHT22;23763;48.130;11.602;2023-04-25T07:54:27;12.40;99.90
37938;DHT22;23763;48.130;11.602;2023-04-25T07:56:53;13.50;99.90
37938;DHT22;23763;48.130;11.602;2023-04-25T07:59:18;15.20;99.90
37938;DHT22;23763;48.130;11.602;2023-04-25T08:01:44;17.40;99.90
37938;DHT22;23763;48.130;11.602;2023-04-25T08:04:10;20.00;99.90
37938;DHT22;23763;48.130;11.602;2023-04-25T08:06:35;21.80;94.90
37938;DHT22;23763;48.130;11.602;2023-04-25T08:09:01;22.00;92.50
37938;DHT22;23763;48.130;11.602;2023-04-25T08:11:28;22.40;90.90
37938;DHT22;23763;48.130;11.602;2023-04-25T08:13:54;23.00;90.00
37938;DHT22;23763;48.130;11.602;2023-04-25T08:16:19;22.70;86.30
37938;DHT22;23763;48.130;11.602;2023-04-25T08:18:45;21.50;88.60
37938;DHT22;23763;48.130;11.602;2023-04-25T08:21:10;22.80;87.20
37938;DHT22;23763;48.130;11.602;2023-04-25T08:23:37;21.50;87.20
37938;DHT22;23763;48.130;11.602;2023-04-25T08:26:03;19.70;90.70
37938;DHT22;23763;48.130;11.602;2023-04-25T08:28:30;18.10;92.20
37938;DHT22;23763;48.130;11.602;2023-04-25T08:30:56;16.60;94.70
37938;DHT22;23763;48.130;11.602;2023-04-25T08:33:21;15.80;95.90
37938;DHT22;23763;48.130;11.602;2023-04-25T08:35:47;15.10;96.30
37938;DHT22;23763;48.130;11.602;2023-04-25T08:38:12;14.70;97.10
37938;DHT22;23763;48.130;11.602;2023-04-25T08:40:39;14.20;98.20
37938;DHT22;23763;48.130;11.602;2023-04-25T08:43:07;14.10;98.50
37938;DHT22;23763;48.130;11.602;2023-04-25T08:45:39;14.50;98.70
37938;DHT22;23763;48.130;11.602;2023-04-25T08:48:13;15.70;97.70
37938;DHT22;23763;48.130;11.602;2023-04-25T08:50:40;17.20;95.50
37938;DHT22;23763;48.130;11.602;2023-04-25T08:53:12;18.30;93.30
37938;DHT22;23763;48.130;11.602;2023-04-25T08:55:43;20.00;91.60
37938;DHT22;23763;48.130;11.602;2023-04-25T08:58:11;20.70;89.90
37938;DHT22;23763;48.130;11.602;2023-04-25T09:00:37;19.90;88.40
37938;DHT22;23763;48.130;11.602;2023-04-25T09:03:03;19.30;87.90
37938;DHT22;23763;48.130;11.602;2023-04-25T09:05:28;18.80;88.20
37938;DHT22;23763;48.130;11.602;2023-04-25T09:07:54;19.00;87.90
37938;DHT22;23763;48.130;11.602;2023-04-25T09:10:21;18.90;87.40
37938;DHT22;23763;48.130;11.602;2023-04-25T09:15:31;19.30;83.60
37938;DHT22;23763;48.130;11.602;2023-04-25T09:17:58;18.10;86.10
37938;DHT22;23763;48.130;11.602;2023-04-25T09:20:23;17.80;86.30
37938;DHT22;23763;48.130;11.602;2023-04-25T09:23:04;18.70;84.30
37938;DHT22;23763;48.130;11.602;2023-04-25T09:25:36;19.10;82.90
37938;DHT22;23763;48.130;11.602;2023-04-25T09:28:05;17.60;85.20
37938;DHT22;23763;48.130;11.602;2023-04-25T09:30:33;17.10;84.70
37938;DHT22;23763;48.130;11.602;2023-04-25T09:33:10;16.40;89.40
37938;DHT22;23763;48.130;11.602;2023-04-25T09:35:43;15.70;90.90
37938;DHT22;23763;48.130;11.602;2023-04-25T09:38:13;15.10;91.80
37938;DHT22;23763;48.130;11.602;2023-04-25T09:40:40;14.70;92.50
37938;DHT22;23763;48.130;11.602;2023-04-25T09:45:42;14.20;93.20
37938;DHT22;23763;48.130;11.602;2023-04-25T09:48:11;14.00;93.40
37938;DHT22;23763;48.130;11.602;2023-04-25T09:50:38;13.80;94.20
37938;DHT22;23763;48.130;11.602;2023-04-25T09:53:05;13.90;94.30
37938;DHT22;23763;48.130;11.602;2023-04-25T09:55:34;14.30;93.70
37938;DHT22;23763;48.130;11.602;2023-04-25T09:58:04;14.60;92.70
37938;DHT22;23763;48.130;11.602;2023-04-25T10:00:31;14.80;92.10
37938;DHT22;23763;48.130;11.602;2023-04-25T10:03:00;14.90;92.10
37938;DHT22;23763;48.130;11.602;2023-04-25T10:05:27;15.10;91.60
37938;DHT22;23763;48.130;11.602;2023-04-25T10:07:55;15.00;91.80
37938;DHT22;23763;48.130;11.602;2023-04-25T10:10:21;14.90;92.60
37938;DHT22;23763;48.130;11.602;2023-04-25T10:12:51;14.50;92.50
37938;DHT22;23763;48.130;11.602;2023-04-25T10:15:17;14.60;92.40
37938;DHT22;23763;48.130;11.602;2023-04-25T10:17:43;14.60;92.70
37938;DHT22;23763;48.130;11.602;2023-04-25T10:20:10;14.70;92.70
37938;DHT22;23763;48.130;11.602;2023-04-25T10:22:44;14.80;92.70
37938;DHT22;23763;48.130;11.602;2023-04-25T10:25:11;15.10;92.40
37938;DHT22;23763;48.130;11.602;2023-04-25T10:27:38;15.50;92.20
37938;DHT22;23763;48.130;11.602;2023-04-25T10:30:09;16.00;91.00
37938;DHT22;23763;48.130;11.602;2023-04-25T10:32:39;16.10;90.80
37938;DHT22;23763;48.130;11.602;2023-04-25T10:38:08;16.10;90.60
37938;DHT22;23763;48.130;11.602;2023-04-25T10:40:34;15.80;91.20
37938;DHT22;23763;48.130;11.602;2023-04-25T10:46:02;13.90;95.10
37938;DHT22;23763;48.130;11.602;2023-04-25T10:48:29;13.20;99.40
37938;DHT22;23763;48.130;11.602;2023-04-25T10:51:11;12.50;99.90
37938;DHT22;23763;48.130;11.602;2023-04-25T10:53:37;12.00;99.90
37938;DHT22;23763;48.130;11.602;2023-04-25T10:56:11;11.80;99.90
37938;DHT22;23763;48.130;11.602;2023-04-25T10:58:42;11.70;99.90
37938;DHT22;23763;48.130;11.602;2023-04-25T11:01:08;11.50;99.90
37938;DHT22;23763;48.130;11.602;2023-04-25T11:03:39;11.60;99.90
37938;DHT22;23763;48.130;11.602;2023-04-25T11:06:06;11.70;99.90
37938;DHT22;23763;48.130;11.602;2023-04-25T11:08:50;12.00;99.90
37938;DHT22;23763;48.130;11.602;2023-04-25T11:11:17;12.10;99.90
37938;DHT22;23763;48.130;11.602;2023-04-25T11:13:43;12.30;99.90
37938;DHT22;23763;48.130;11.602;2023-04-25T11:16:09;12.60;99.90
37938;DHT22;23763;48.130;11.602;2023-04-25T11:18:35;12.60;99.90
37938;DHT22;23763;48.130;11.602;2023-04-25T11:21:03;12.80;99.90
37938;DHT22;23763;48.130;11.602;2023-04-25T11:23:30;12.90;99.90
37938;DHT22;23763;48.130;11.602;2023-04-25T11:25:56;13.00;99.90
37938;DHT22;23763;48.130;11.602;2023-04-25T11:28:22;12.60;99.50
37938;DHT22;23763;48.130;11.602;2023-04-25T11:30:49;12.40;99.90
37938;DHT22;23763;48.130;11.602;2023-04-25T11:33:16;12.50;99.90
37938;DHT22;23763;48.130;11.602;2023-04-25T11:35:42;12.70;99.90
37938;DHT22;23763;48.130;11.602;2023-04-25T11:38:08;12.60;99.80
37938;DHT22;23763;48.130;11.602;2023-04-25T11:40:35;12.50;98.80
37938;DHT22;23763;48.130;11.602;2023-04-25T11:43:01;12.60;99.90
37938;DHT22;23763;48.130;11.602;2023-04-25T11:45:27;12.30;99.70
37938;DHT22;23763;48.130;11.602;2023-04-25T11:47:54;12.10;99.90
37938;DHT22;23763;48.130;11.602;2023-04-25T11:50:20;12.00;99.90
37938;DHT22;23763;48.130;11.602;2023-04-25T11:52:47;12.00;99.90
37938;DHT22;23763;48.130;11.602;2023-04-25T11:55:18;11.90;99.90
37938;DHT22;23763;48.130;11.602;2023-04-25T11:57:46;11.90;99.90
37938;DHT22;23763;48.130;11.602;2023-04-25T12:00:15;11.80;99.90
37938;DHT22;23763;48.130;11.602;2023-04-25T12:02:43;12.00;99.90
37938;DHT22;23763;48.130;11.602;2023-04-25T12:05:10;11.90;99.90
37938;DHT22;23763;48.130;11.602;2023-04-25T12:07:36;11.70;99.90
37938;DHT22;23763;48.130;11.602;2023-04-25T12:10:07;11.70;99.90
37938;DHT22;23763;48.130;11.602;2023-04-25T12:12:34;11.70;99.90
37938;DHT22;23763;48.130;11.602;2023-04-25T12:17:46;11.70;99.90
37938;DHT22;23763;48.130;11.602;2023-04-25T12:20:14;11.60;99.90
37938;DHT22;23763;48.130;11.602;2023-04-25T12:22:45;11.50;99.90
37938;DHT22;23763;48.130;11.602;2023-04-25T12:25:39;11.40;99.90
37938;DHT22;23763;48.130;11.602;2023-04-25T12:28:28;11.60;99.90
37938;DHT22;23763;48.130;11.602;2023-04-25T12:31:00;11.80;99.90
37938;DHT22;23763;48.130;11.602;2023-04-25T12:33:37;11.70;99.90
37938;DHT22;23763;48.130;11.602;2023-04-25T12:36:04;11.60;99.90
37938;DHT22;23763;48.130;11.602;2023-04-25T12:38:41;11.30;99.90
37938;DHT22;23763;48.130;11.602;2023-04-25T12:41:08;11.00;99.90
37938;DHT22;23763;48.130;11.602;2023-04-25T12:43:34;11.20;99.90
37938;DHT22;23763;48.130;11.602;2023-04-25T12:45:59;11.40;99.90
37938;DHT22;23763;48.130;11.602;2023-04-25T12:48:25;11.70;99.90
37938;DHT22;23763;48.130;11.602;2023-04-25T12:50:51;11.90;99.90
37938;DHT22;23763;48.130;11.602;2023-04-25T12:53:21;12.00;99.90
37938;DHT22;23763;48.130;11.602;2023-04-25T12:55:48;12.00;99.90
37938;DHT22;23763;48.130;11.602;2023-04-25T12:58:14;12.10;99.90
37938;DHT22;23763;48.130;11.602;2023-04-25T13:00:40;11.80;99.90
37938;DHT22;23763;48.130;11.602;2023-04-25T13:03:06;11.60;99.90
37938;DHT22;23763;48.130;11.602;2023-04-25T13:05:31;11.30;99.90
37938;DHT22;23763;48.130;11.602;2023-04-25T13:07:57;11.20;99.90
37938;DHT22;23763;48.130;11.602;2023-04-25T13:10:23;11.10;99.90
37938;DHT22;23763;48.130;11.602;2023-04-25T13:12:48;10.90;99.90
37938;DHT22;23763;48.130;11.602;2023-04-25T13:15:14;10.80;99.90
37938;DHT22;23763;48.130;11.602;2023-04-25T13:17:41;10.60;99.90
37938;DHT22;23763;48.130;11.602;2023-04-25T13:20:08;10.70;99.90
37938;DHT22;23763;48.130;11.602;2023-04-25T13:22:41;10.70;99.90
37938;DHT22;23763;48.130;11.602;2023-04-25T13:25:07;10.40;99.90
37938;DHT22;23763;48.130;11.602;2023-04-25T13:27:34;10.20;99.90
37938;DHT22;23763;48.130;11.602;2023-04-25T13:30:01;10.30;99.90
37938;DHT22;23763;48.130;11.602;2023-04-25T13:32:30;10.30;99.90
37938;DHT22;23763;48.130;11.602;2023-04-25T13:34:55;10.30;99.90
37938;DHT22;23763;48.130;11.602;2023-04-25T13:37:21;10.20;99.90
37938;DHT22;23763;48.130;11.602;2023-04-25T13:39:49;10.20;99.90
37938;DHT22;23763;48.130;11.602;2023-04-25T13:42:17;10.30;99.90
37938;DHT22;23763;48.130;11.602;2023-04-25T13:44:43;10.20;99.90
37938;DHT22;23763;48.130;11.602;2023-04-25T13:47:09;10.10;99.90
37938;DHT22;23763;48.130;11.602;2023-04-25T13:49:34;10.00;99.90
37938;DHT22;23763;48.130;11.602;2023-04-25T13:52:00;9.70;99.90
37938;DHT22;23763;48.130;11.602;2023-04-25T13:54:25;9.70;99.90
37938;DHT22;23763;48.130;11.602;2023-04-25T13:56:51;9.50;99.90
37938;DHT22;23763;48.130;11.602;2023-04-25T13:59:17;9.40;99.90
37938;DHT22;23763;48.130;11.602;2023-04-25T14:01:43;9.40;99.90
37938;DHT22;23763;48.130;11.602;2023-04-25T14:04:09;9.30;99.90
37938;DHT22;23763;48.130;11.602;2023-04-25T14:06:36;9.40;99.90
37938;DHT22;23763;48.130;11.602;2023-04-25T14:09:01;9.30;99.90
37938;DHT22;23763;48.130;11.602;2023-04-25T14:11:29;9.40;99.90
37938;DHT22;23763;48.130;11.602;2023-04-25T14:13:55;9.70;99.90
37938;DHT22;23763;48.130;11.602;2023-04-25T14:16:31;9.90;99.90
37938;DHT22;23763;48.130;11.602;2023-04-25T14:18:59;9.90;99.90
37938;DHT22;23763;48.130;11.602;2023-04-25T14:21:26;9.90;99.90
37938;DHT22;23763;48.130;11.602;2023-04-25T14:23:52;9.90;99.90
37938;DHT22;23763;48.130;11.602;2023-04-25T14:26:18;9.60;99.90
37938;DHT22;23763;48.130;11.602;2023-04-25T14:28:44;9.50;99.90
37938;DHT22;23763;48.130;11.602;2023-04-25T14:31:09;9.40;99.90
37938;DHT22;23763;48.130;11.602;2023-04-25T14:33:35;9.40;99.90
37938;DHT22;23763;48.130;11.602;2023-04-25T14:36:02;9.40;99.90
37938;DHT22;23763;48.130;11.602;2023-04-25T14:38:28;9.50;99.90
37938;DHT22;23763;48.130;11.602;2023-04-25T14:40:54;9.70;99.90
37938;DHT22;23763;48.130;11.602;2023-04-25T14:43:20;9.70;99.90
37938;DHT22;23763;48.130;11.602;2023-04-25T14:45:45;10.00;99.90
37938;DHT22;23763;48.130;11.602;2023-04-25T14:48:11;10.20;99.90
37938;DHT22;23763;48.130;11.602;2023-04-25T14:50:36;10.20;99.90
37938;DHT22;23763;48.130;11.602;2023-04-25T14:53:02;10.20;99.90
37938;DHT22;23763;48.130;11.602;2023-04-25T14:55:28;10.20;99.90
37938;DHT22;23763;48.130;11.602;2023-04-25T14:57:54;10.30;99.90
37938;DHT22;23763;48.130;11.602;2023-04-25T15:00:21;10.30;99.90
37938;DHT22;23763;48.130;11.602;2023-04-25T15:02:48;10.40;99.90
37938;DHT22;23763;48.130;11.602;2023-04-25T15:05:14;10.30;99.90
37938;DHT22;23763;48.130;11.602;2023-04-25T15:07:39;10.40;99.90
37938;DHT22;23763;48.130;11.602;2023-04-25T15:10:06;10.30;99.90
37938;DHT22;23763;48.130;11.602;2023-04-25T15:12:37;10.40;99.90
37938;DHT22;23763;48.130;11.602;2023-04-25T15:15:03;10.60;99.90
37938;DHT22;23763;48.130;11.602;2023-04-25T15:17:30;10.70;99.90
37938;DHT22;23763;48.130;11.602;2023-04-25T15:19:59;10.70;99.90
37938;DHT22;23763;48.130;11.602;2023-04-25T15:22:25;10.50;99.90
37938;DHT22;23763;48.130;11.602;2023-04-25T15:24:50;10.50;99.90
37938;DHT22;23763;48.130;11.602;2023-04-25T15:27:16;10.50;99.90
37938;DHT22;23763;48.130;11.602;2023-04-25T15:29:42;10.40;99.90
37938;DHT22;23763;48.130;11.602;2023-04-25T15:32:08;10.40;99.90
37938;DHT22;23763;48.130;11.602;2023-04-25T15:34:33;10.40;99.90